Time;durP1;ratioP1;P1;durP2;ratioP2;P2;SDS_P1;SDS_P2;PMS_P1;PMS_P2;Temp;Humidity;BMP_temperature;BMP_pressure;BME280_temperature;BME280_humidity;BME280_pressure;Samples;Min_cycle;Max_cycle;Signal;HPM_P1;HPM_P2
2023/12/30 00:00:58;;;;;;;7.40;1.53;;;8.40;99.90;;;8.95;100.00;97781.75;5043938;28;20496;-80
2023/12/30 00:03:27;;;;;;;4.03;1.10;;;8.50;99.90;;;8.94;100.00;97777.53;5044516;28;20944;-81
2023/12/30 00:05:56;;;;;;;3.33;1.20;;;8.50;99.90;;;8.90;100.00;97771.88;5046314;28;20466;-80
2023/12/30 00:08:24;;;;;;;6.30;1.40;;;8.50;99.90;;;8.91;100.00;97772.69;5045481;28;21248;-81
2023/12/30 00:10:53;;;;;;;2.07;1.00;;;8.50;99.90;;;8.92;100.00;97761.28;5046868;28;20550;-80
2023/12/30 00:13:21;;;;;;;2.00;1.23;;;8.40;99.90;;;8.90;100.00;97758.84;5044769;28;20457;-80
2023/12/30 00:15:51;;;;;;;2.97;1.40;;;8.40;99.90;;;8.86;100.00;97761.97;5045002;28;20515;-80
2023/12/30 00:18:20;;;;;;;2.43;1.60;;;8.40;99.90;;;8.85;100.00;97771.59;5048003;28;20493;-81
2023/12/30 00:20:48;;;;;;;6.40;1.50;;;8.40;99.90;;;8.88;100.00;97775.66;5044326;28;20527;-80
2023/12/30 00:23:18;;;;;;;4.80;1.60;;;8.40;99.90;;;8.86;100.00;97772.41;5044870;28;20504;-80
2023/12/30 00:25:46;;;;;;;7.33;1.43;;;8.50;99.90;;;8.90;100.00;97777.09;5043214;28;20857;-81
2023/12/30 00:28:15;;;;;;;5.07;1.30;;;8.40;99.90;;;8.91;100.00;97770.06;5046737;28;20519;-80
2023/12/30 00:30:43;;;;;;;8.83;1.33;;;8.40;99.90;;;8.87;100.00;97781.84;5046793;28;20480;-80
2023/12/30 00:33:13;;;;;;;4.80;1.57;;;8.50;99.90;;;8.86;100.00;97780.22;5046336;28;20464;-81
2023/12/30 00:35:42;;;;;;;8.10;1.23;;;8.50;99.90;;;8.89;100.00;97782.47;5042891;28;20464;-80
2023/12/30 00:38:11;;;;;;;5.43;1.30;;;8.40;99.90;;;8.93;100.00;97778.50;5045694;28;20880;-80
2023/12/30 00:40:42;;;;;;;4.73;1.40;;;8.40;99.90;;;8.94;100.00;97777.53;5045401;28;21018;-81
2023/12/30 00:43:11;;;;;;;2.60;1.03;;;8.50;99.90;;;8.91;100.00;97770.88;5047479;28;20457;-80
2023/12/30 00:45:39;;;;;;;3.00;1.17;;;8.50;99.90;;;8.94;100.00;97783.56;5043523;28;20579;-80
2023/12/30 00:48:08;;;;;;;6.00;1.50;;;8.50;99.90;;;8.95;100.00;97776.53;5046241;28;20466;-81
2023/12/30 00:50:37;;;;;;;1.67;0.90;;;8.50;99.90;;;8.97;100.00;97774.53;5044852;28;20987;-80
2023/12/30 00:53:06;;;;;;;2.13;0.90;;;8.50;99.90;;;8.97;100.00;97784.97;5045938;28;20504;-81
2023/12/30 00:55:34;;;;;;;4.73;1.30;;;8.50;99.90;;;8.97;100.00;97788.41;5044194;28;20457;-80
2023/12/30 00:58:03;;;;;;;1.03;0.80;;;8.50;99.90;;;8.96;100.00;97789.38;5044268;28;20449;-81
2023/12/30 01:00:32;;;;;;;1.33;0.90;;;8.50;99.90;;;8.95;100.00;97789.59;5043825;28;20554;-80
2023/12/30 01:03:00;;;;;;;2.80;1.33;;;8.50;99.90;;;8.95;100.00;97789.59;5043487;28;20492;-80
2023/12/30 01:05:29;;;;;;;3.77;1.30;;;8.50;99.90;;;8.98;100.00;97786.59;5043284;28;20460;-81
2023/12/30 01:07:59;;;;;;;8.90;1.57;;;8.50;99.90;;;8.95;100.00;97798.22;5049064;28;20469;-81
2023/12/30 01:10:27;;;;;;;2.00;1.07;;;8.50;99.90;;;8.95;100.00;97797.41;5050127;28;21024;-81
2023/12/30 01:12:56;;;;;;;1.77;0.90;;;8.60;99.90;;;8.97;100.00;97796.22;5051299;28;20473;-80
2023/12/30 01:15:25;;;;;;;2.43;1.10;;;8.50;99.90;;;8.95;100.00;97797.41;5050657;28;20457;-80
2023/12/30 01:17:53;;;;;;;5.63;1.77;;;8.50;99.90;;;8.99;100.00;97811.66;5047906;28;20465;-81
2023/12/30 01:20:22;;;;;;;3.43;1.37;;;8.60;99.90;;;8.96;100.00;97807.63;5050746;28;20570;-81
2023/12/30 01:22:50;;;;;;;4.73;1.80;;;8.50;99.90;;;8.98;100.00;97813.50;5049377;28;20510;-82
2023/12/30 01:25:20;;;;;;;2.30;0.93;;;8.50;99.90;;;9.02;100.00;97816.53;5049072;28;20456;-80
2023/12/30 01:27:49;;;;;;;1.80;1.07;;;8.50;99.90;;;9.01;100.00;97817.53;5048205;28;20477;-80
2023/12/30 01:30:17;;;;;;;2.60;1.70;;;8.60;99.90;;;9.03;100.00;97810.31;5047374;28;20460;-81
2023/12/30 01:32:46;;;;;;;3.07;1.20;;;8.60;99.90;;;8.99;100.00;97815.09;5049116;28;20544;-80
2023/12/30 01:35:15;;;;;;;3.03;1.33;;;8.60;99.90;;;8.92;100.00;97811.59;5048183;28;20964;-80
2023/12/30 01:37:44;;;;;;;4.03;1.50;;;8.60;99.90;;;8.94;100.00;97827.06;5049586;28;20459;-81
2023/12/30 01:40:13;;;;;;;2.50;1.47;;;8.50;99.90;;;8.91;100.00;97822.22;5046917;28;21037;-81
2023/12/30 01:42:43;;;;;;;4.67;1.50;;;8.50;99.90;;;8.92;100.00;97822.03;5047440;28;20465;-80
2023/12/30 01:45:12;;;;;;;2.90;1.10;;;8.50;99.90;;;8.91;100.00;97838.69;5049129;28;21734;-81
2023/12/30 01:47:41;;;;;;;2.17;1.00;;;8.50;99.90;;;8.88;100.00;97838.22;5048454;28;20460;-80
2023/12/30 01:50:11;;;;;;;3.10;1.20;;;8.30;99.90;;;8.86;100.00;97835.78;5047671;28;20856;-81
2023/12/30 01:52:44;;;;;;;2.30;1.10;;;8.40;99.90;;;8.88;100.00;97841.66;5049217;28;20471;-80
2023/12/30 01:55:13;;;;;;;2.77;1.10;;;8.40;99.90;;;8.85;100.00;97833.38;5050327;28;20510;-80
2023/12/30 01:57:45;;;;;;;3.80;1.13;;;8.40;99.90;;;8.87;100.00;97841.81;5049502;28;22224;-81
2023/12/30 02:00:20;;;;;;;6.80;1.53;;;8.40;99.90;;;8.79;100.00;97834.09;5048345;28;20504;-81
2023/12/30 02:02:50;;;;;;;4.53;1.30;;;8.30;99.90;;;8.80;100.00;97840.94;5048435;28;20530;-81
2023/12/30 02:05:18;;;;;;;3.07;1.03;;;8.30;99.90;;;8.83;100.00;97851.00;5049701;28;20603;-80
2023/12/30 02:07:48;;;;;;;4.67;1.60;;;8.40;99.90;;;8.79;100.00;97852.34;5046524;28;20496;-80
2023/12/30 02:10:16;;;;;;;5.90;1.30;;;8.40;99.90;;;8.80;100.00;97846.94;5048947;28;20465;-81
2023/12/30 02:12:46;;;;;;;3.97;1.37;;;8.40;99.90;;;8.83;100.00;97848.38;5049935;28;20821;-80
2023/12/30 02:15:17;;;;;;;6.10;1.40;;;8.40;99.90;;;8.81;100.00;97840.75;5047319;28;20480;-80
2023/12/30 02:17:47;;;;;;;1.37;1.23;;;8.40;99.90;;;8.83;100.00;97835.34;5046387;28;20559;-81
2023/12/30 02:20:16;;;;;;;5.73;1.07;;;8.30;99.90;;;8.79;100.00;97836.69;5049407;28;20453;-80
2023/12/30 02:22:48;;;;;;;2.43;0.97;;;8.30;99.90;;;8.79;100.00;97844.50;5049653;28;20550;-80
2023/12/30 02:25:17;;;;;;;6.03;1.83;;;8.20;99.90;;;8.73;100.00;97833.03;5049350;28;20460;-80
2023/12/30 02:27:46;;;;;;;2.33;1.20;;;8.20;99.90;;;8.71;100.00;97842.03;5048340;28;20461;-81
2023/12/30 02:30:16;;;;;;;2.73;1.10;;;8.20;99.90;;;8.74;100.00;97842.47;5048310;28;20461;-80
2023/12/30 02:32:44;;;;;;;6.53;1.37;;;8.20;99.90;;;8.75;100.00;97848.47;5048101;28;20461;-81
2023/12/30 02:35:13;;;;;;;8.40;1.50;;;8.20;99.90;;;8.73;100.00;97843.44;5043237;28;20457;-81
2023/12/30 02:37:41;;;;;;;6.30;1.50;;;8.30;99.90;;;8.75;100.00;97848.47;5047294;28;20964;-81
2023/12/30 02:40:12;;;;;;;5.00;1.43;;;8.30;99.90;;;8.76;100.00;97844.88;5049241;28;20461;-80
2023/12/30 02:42:41;;;;;;;5.80;1.33;;;8.20;99.90;;;8.76;100.00;97839.66;5046962;28;20503;-80
2023/12/30 02:45:12;;;;;;;5.03;1.37;;;8.20;99.90;;;8.78;100.00;97848.13;5046738;28;20472;-81
2023/12/30 02:47:40;;;;;;;2.47;1.27;;;8.20;99.90;;;8.75;100.00;97846.66;5047842;28;20464;-81
2023/12/30 02:50:10;;;;;;;2.33;1.40;;;8.10;99.90;;;8.74;100.00;97846.88;5048552;28;20461;-81
2023/12/30 02:52:38;;;;;;;2.67;1.60;;;8.20;99.90;;;8.76;100.00;97843.09;5047817;28;20473;-81
2023/12/30 02:55:08;;;;;;;2.80;1.23;;;8.10;99.90;;;8.79;100.00;97844.50;5047503;28;20499;-81
2023/12/30 02:57:37;;;;;;;8.33;1.70;;;8.20;99.90;;;8.74;100.00;97839.03;5047522;28;20457;-81
2023/12/30 03:00:18;;;;;;;6.73;1.53;;;8.10;99.90;;;8.74;100.00;97823.41;5047400;28;20460;-80
2023/12/30 03:02:47;;;;;;;2.90;1.07;;;8.20;99.90;;;8.74;100.00;97836.44;5047007;28;20485;-80
2023/12/30 03:05:15;;;;;;;4.20;1.90;;;8.10;99.90;;;8.77;100.00;97843.91;5047710;28;20801;-81
2023/12/30 03:07:44;;;;;;;5.20;1.73;;;8.10;99.90;;;8.78;100.00;97842.91;5046347;28;20522;-80
2023/12/30 03:10:13;;;;;;;9.30;1.50;;;8.20;99.90;;;8.76;100.00;97837.88;5047308;28;20854;-80
2023/12/30 03:12:43;;;;;;;7.57;1.57;;;8.20;99.90;;;8.79;100.00;97844.50;5047872;28;20468;-81
2023/12/30 03:15:11;;;;;;;14.13;1.73;;;8.30;99.90;;;8.82;100.00;97841.53;5046150;28;20469;-81
2023/12/30 03:17:40;;;;;;;4.77;1.50;;;8.30;99.90;;;8.81;100.00;97842.56;5048143;28;20456;-81
2023/12/30 03:20:10;;;;;;;1.87;1.60;;;8.30;99.90;;;8.82;100.00;97847.56;5047627;28;20465;-80
2023/12/30 03:22:39;;;;;;;3.20;1.50;;;8.20;99.90;;;8.87;100.00;97852.25;5048444;28;20507;-80
2023/12/30 03:25:08;;;;;;;6.47;1.70;;;8.20;99.90;;;8.86;100.00;97850.63;5047677;28;20476;-80
2023/12/30 03:27:37;;;;;;;4.87;1.20;;;8.20;99.90;;;8.82;100.00;97841.53;5046118;28;20465;-80
2023/12/30 03:30:08;;;;;;;5.43;1.63;;;8.20;99.90;;;8.83;100.00;97840.56;5044414;28;20464;-80
2023/12/30 03:32:37;;;;;;;9.10;1.70;;;8.20;99.90;;;8.80;100.00;97841.75;5050309;28;20529;-80
2023/12/30 03:35:07;;;;;;;12.10;1.70;;;8.20;99.90;;;8.84;100.00;97847.41;5045224;28;21019;-81
2023/12/30 03:37:35;;;;;;;3.90;1.67;;;8.30;99.90;;;8.85;100.00;97849.81;5047700;28;20495;-79
2023/12/30 03:40:06;;;;;;;10.80;3.43;;;8.30;99.90;;;8.85;100.00;97856.84;5047239;28;21087;-80
2023/12/30 03:42:34;;;;;;;9.03;1.60;;;8.30;99.90;;;8.86;100.00;97864.47;5048262;28;20554;-81
2023/12/30 03:45:04;;;;;;;2.57;1.40;;;8.30;99.90;;;8.86;100.00;97850.63;5047263;28;20460;-80
2023/12/30 03:47:34;;;;;;;3.73;1.60;;;8.40;99.90;;;8.89;100.00;97865.91;5045647;28;20457;-81
2023/12/30 03:50:03;;;;;;;2.60;1.30;;;8.40;99.90;;;8.87;100.00;97865.28;5046857;28;20453;-80
2023/12/30 03:52:32;;;;;;;9.13;1.40;;;8.40;99.90;;;8.88;100.00;97870.34;5047526;28;20528;-80
2023/12/30 03:55:00;;;;;;;5.20;2.10;;;8.40;99.90;;;8.88;100.00;97865.13;5044269;28;20780;-80
2023/12/30 03:57:29;;;;;;;13.57;1.77;;;8.30;99.90;;;8.90;100.00;97877.97;5045968;28;20465;-80
2023/12/30 03:59:58;;;;;;;7.50;2.07;;;8.30;99.90;;;8.92;100.00;97878.59;5046974;28;20461;-81
2023/12/30 04:02:26;;;;;;;6.13;1.70;;;8.30;99.90;;;8.91;100.00;97875.19;5044255;28;20497;-80
2023/12/30 04:04:56;;;;;;;4.63;1.30;;;8.40;99.90;;;8.90;100.00;97877.97;5045313;28;20469;-80
2023/12/30 04:07:25;;;;;;;10.60;1.40;;;8.30;99.90;;;8.92;100.00;97868.19;5041024;28;20979;-80
2023/12/30 04:09:53;;;;;;;3.90;1.43;;;8.30;99.90;;;8.91;100.00;97867.38;5044625;28;20461;-79
2023/12/30 04:12:22;;;;;;;46.97;18.80;;;8.30;99.90;;;8.93;100.00;97873.19;5043648;28;20552;-80
2023/12/30 04:14:50;;;;;;;7.20;1.70;;;8.30;99.90;;;8.90;100.00;97875.34;5042232;28;21222;-80
2023/12/30 04:17:19;;;;;;;2.77;1.57;;;8.40;99.90;;;8.89;100.00;97879.75;5047162;28;20538;-80
2023/12/30 04:19:50;;;;;;;13.23;2.37;;;8.30;99.90;;;8.89;100.00;97881.53;5046604;28;20469;-80
2023/12/30 04:22:20;;;;;;;13.53;5.37;;;8.30;99.90;;;8.92;100.00;97865.56;5044001;28;20842;-80
2023/12/30 04:24:49;;;;;;;10.33;2.03;;;8.30;99.90;;;8.95;100.00;97866.00;5044894;28;20527;-81
2023/12/30 04:27:18;;;;;;;5.83;1.40;;;8.30;99.90;;;8.94;100.00;97869.59;5045613;28;20453;-81
2023/12/30 04:29:46;;;;;;;9.13;1.70;;;8.30;99.90;;;8.94;100.00;97871.41;5045079;28;20508;-81
2023/12/30 04:32:14;;;;;;;8.77;2.00;;;8.40;99.90;;;8.94;100.00;97874.81;5046206;28;20460;-81
2023/12/30 04:34:43;;;;;;;19.03;3.07;;;8.30;99.90;;;8.96;100.00;97883.25;5045527;28;20462;-81
2023/12/30 04:37:12;;;;;;;4.87;1.50;;;8.30;99.90;;;8.97;100.00;97884.06;5046566;28;20457;-81
2023/12/30 04:39:42;;;;;;;3.03;1.47;;;8.30;99.90;;;8.92;100.00;97882.00;5043552;28;20460;-81
2023/12/30 04:42:11;;;;;;;9.33;1.33;;;8.30;99.90;;;8.92;100.00;97879.38;5044402;28;20485;-81
2023/12/30 04:44:39;;;;;;;6.40;2.10;;;8.20;99.90;;;8.90;100.00;97880.56;5045075;28;20457;-81
2023/12/30 04:47:08;;;;;;;8.13;1.80;;;8.20;99.90;;;8.91;100.00;97882.19;5044706;28;20465;-81
2023/12/30 04:49:37;;;;;;;10.07;1.47;;;8.20;99.90;;;8.92;100.00;97886.44;5045127;28;20534;-81
2023/12/30 04:52:06;;;;;;;6.90;1.60;;;8.20;99.90;;;8.90;100.00;97878.78;5043650;28;20480;-81
2023/12/30 04:54:35;;;;;;;23.57;16.03;;;8.20;99.90;;;8.90;100.00;97886.59;5045714;28;20461;-79
2023/12/30 04:57:05;;;;;;;18.73;5.50;;;8.20;99.90;;;8.86;100.00;97885.34;5046760;28;21001;-81
2023/12/30 04:59:36;;;;;;;12.50;2.87;;;8.20;99.90;;;8.87;100.00;97879.13;5043537;28;20617;-81
2023/12/30 05:02:05;;;;;;;9.43;1.63;;;8.30;99.90;;;8.88;100.00;97878.16;5043811;28;22273;-81
2023/12/30 05:04:33;;;;;;;6.90;1.40;;;8.30;99.90;;;8.88;100.00;97887.78;5043341;28;20937;-81
2023/12/30 05:07:02;;;;;;;10.53;1.70;;;8.30;99.90;;;8.91;100.00;97879.59;5048340;28;20959;-80
2023/12/30 05:09:31;;;;;;;7.20;1.80;;;8.30;99.90;;;8.95;100.00;97886.06;5047531;28;20815;-80
2023/12/30 05:11:59;;;;;;;3.50;1.30;;;8.30;99.90;;;8.97;100.00;97894.50;5043064;28;20461;-81
2023/12/30 05:14:29;;;;;;;2.07;1.10;;;8.30;99.90;;;8.94;100.00;97884.44;5042289;28;20488;-80
2023/12/30 05:16:58;;;;;;;6.80;2.07;;;8.40;99.90;;;8.97;100.00;97899.72;5043584;28;20770;-81
2023/12/30 05:19:26;;;;;;;8.33;2.10;;;8.30;99.90;;;8.97;100.00;97897.13;5046066;28;20465;-81
2023/12/30 05:21:55;;;;;;;7.97;1.90;;;8.30;99.90;;;8.98;100.00;97898.75;5041916;28;20473;-81
2023/12/30 05:24:23;;;;;;;9.15;1.75;;;8.30;99.90;;;8.96;100.00;97906.72;5042115;28;20470;-81
2023/12/30 05:26:52;;;;;;;8.53;1.80;;;8.30;99.90;;;8.91;100.00;97905.66;5045500;28;20222;-81
2023/12/30 05:29:20;;;;;;;4.80;1.30;;;8.30;99.90;;;8.98;100.00;97901.34;5046134;28;20470;-81
2023/12/30 05:31:50;;;;;;;7.50;1.83;;;8.30;99.90;;;8.99;100.00;97914.19;5046084;28;20500;-81
2023/12/30 05:34:19;;;;;;;7.43;1.50;;;8.40;99.90;;;9.00;100.00;97920.22;5045985;28;20476;-80
2023/12/30 05:36:47;;;;;;;18.47;2.27;;;8.50;99.90;;;8.95;100.00;97919.97;5045801;28;21057;-81
2023/12/30 05:39:16;;;;;;;3.17;1.60;;;8.40;99.90;;;8.95;100.00;97917.34;5044357;28;20460;-80
2023/12/30 05:41:44;;;;;;;5.37;1.40;;;8.40;99.90;;;8.96;100.00;97927.59;5046239;28;20480;-80
2023/12/30 05:44:13;;;;;;;7.07;1.70;;;8.50;99.90;;;8.95;100.00;97936.44;5046920;28;20499;-81
2023/12/30 05:46:42;;;;;;;5.63;1.80;;;8.50;99.90;;;9.00;100.00;97935.88;5047519;28;20461;-81
2023/12/30 05:49:12;;;;;;;4.30;1.40;;;8.50;99.90;;;8.98;100.00;97937.84;5050068;28;20466;-80
2023/12/30 05:51:44;;;;;;;8.33;1.70;;;8.50;99.90;;;9.01;100.00;97945.31;5048411;28;20491;-80
2023/12/30 05:54:13;;;;;;;7.10;1.67;;;8.50;99.90;;;9.03;100.00;97948.53;5050339;28;20943;-80
2023/12/30 05:56:41;;;;;;;8.13;1.67;;;8.40;99.90;;;9.01;100.00;97953.16;5050849;28;20471;-80
2023/12/30 05:59:10;;;;;;;2.53;1.30;;;8.40;99.90;;;9.04;100.00;97942.34;5049583;28;20464;-81
2023/12/30 06:01:46;;;;;;;7.10;1.40;;;8.50;99.90;;;9.04;100.00;97943.16;5054067;28;20516;-79
2023/12/30 06:04:16;;;;;;;2.87;1.50;;;8.50;99.90;;;9.06;100.00;97956.81;5049043;28;20504;-80
2023/12/30 06:06:45;;;;;;;5.30;1.63;;;8.50;99.90;;;9.04;100.00;97958.81;5048854;28;20453;-81
2023/12/30 06:09:14;;;;;;;3.73;1.60;;;8.50;99.90;;;9.08;100.00;97960.06;5049056;28;20469;-81
2023/12/30 06:11:42;;;;;;;3.40;1.50;;;8.50;99.90;;;9.07;100.00;97961.06;5050953;28;20485;-80
2023/12/30 06:14:11;;;;;;;7.33;1.50;;;8.40;99.90;;;9.05;100.00;97968.25;5049336;28;20458;-80
2023/12/30 06:16:40;;;;;;;6.40;1.40;;;8.50;99.90;;;9.08;100.00;97970.50;5048865;28;20459;-80
2023/12/30 06:19:08;;;;;;;4.10;2.03;;;8.40;99.90;;;9.07;100.00;97971.50;5050544;28;20946;-81
2023/12/30 06:21:39;;;;;;;9.27;2.20;;;8.50;99.90;;;9.07;100.00;97970.66;5048712;28;20947;-81
2023/12/30 06:24:08;;;;;;;5.67;1.40;;;8.60;99.90;;;9.04;100.00;97973.66;5049389;28;20496;-81
2023/12/30 06:26:38;;;;;;;3.33;1.40;;;8.60;99.90;;;9.04;100.00;97978.84;5049859;28;20457;-81
2023/12/30 06:29:08;;;;;;;5.20;1.60;;;8.50;99.90;;;8.96;100.00;97973.72;5050976;28;20472;-80
2023/12/30 06:31:41;;;;;;;10.70;1.50;;;8.40;99.90;;;8.97;100.00;97975.34;5051215;28;21313;-80
2023/12/30 06:34:10;;;;;;;6.37;1.60;;;8.30;99.90;;;8.98;100.00;97977.78;5052162;28;20468;-80
2023/12/30 06:36:41;;;;;;;12.03;1.80;;;8.40;99.90;;;8.95;100.00;97974.72;5048426;28;20847;-81
2023/12/30 06:39:12;;;;;;;4.70;1.50;;;8.30;99.90;;;9.01;100.00;97979.22;5049286;28;20465;-81
2023/12/30 06:41:41;;;;;;;2.73;1.53;;;8.40;99.90;;;9.03;100.00;97992.88;5047991;28;20955;-80
2023/12/30 06:44:10;;;;;;;6.13;1.57;;;8.50;99.90;;;9.00;100.00;97982.81;5047695;28;20497;-81
2023/12/30 06:46:40;;;;;;;15.77;2.00;;;8.50;99.90;;;9.02;100.00;97981.63;5048238;28;20466;-81
2023/12/30 06:49:08;;;;;;;7.20;2.13;;;8.50;99.90;;;9.03;100.00;97977.22;5049394;28;20461;-80
2023/12/30 06:51:37;;;;;;;3.10;1.17;;;8.60;99.90;;;9.02;100.00;97986.06;5049668;28;20475;-81
2023/12/30 06:54:08;;;;;;;6.43;1.47;;;8.60;99.90;;;9.02;100.00;97986.84;5050001;28;20473;-80
2023/12/30 06:56:37;;;;;;;6.50;1.60;;;8.50;99.90;;;9.04;100.00;97992.72;5046924;28;20461;-80
2023/12/30 06:59:05;;;;;;;7.90;1.60;;;8.50;99.90;;;9.03;100.00;97988.47;5047176;28;20489;-81
2023/12/30 07:01:39;;;;;;;9.70;1.90;;;8.50;99.90;;;8.99;100.00;98000.25;5047307;28;20463;-81
2023/12/30 07:04:08;;;;;;;6.63;1.40;;;8.40;99.90;;;9.00;100.00;97993.25;5047473;28;20489;-80
2023/12/30 07:06:36;;;;;;;17.30;2.30;;;8.50;99.90;;;8.98;100.00;97990.00;5048581;28;20465;-81
2023/12/30 07:09:05;;;;;;;14.23;2.00;;;8.40;99.90;;;9.02;100.00;97980.84;5048767;28;20838;-81
2023/12/30 07:11:35;;;;;;;3.73;1.63;;;8.40;99.90;;;9.03;100.00;97985.06;5047773;28;20457;-81
2023/12/30 07:14:04;;;;;;;5.47;1.43;;;8.50;99.90;;;9.01;100.00;97984.44;5049096;28;20473;-81
2023/12/30 07:16:32;;;;;;;6.37;2.00;;;8.50;99.90;;;8.98;100.00;97990.81;5049593;28;21672;-80
2023/12/30 07:19:01;;;;;;;5.20;1.47;;;8.50;99.90;;;8.99;100.00;97986.41;5046792;28;20463;-80
2023/12/30 07:21:31;;;;;;;4.47;1.70;;;8.40;99.90;;;8.99;100.00;97991.63;5047890;28;20476;-81
2023/12/30 07:24:00;;;;;;;2.57;1.60;;;8.40;99.90;;;8.93;100.00;97994.94;5047351;28;21082;-81
2023/12/30 07:26:28;;;;;;;11.37;1.50;;;8.30;99.90;;;8.91;100.00;97995.13;5046208;28;20461;-81
2023/12/30 07:28:59;;;;;;;9.30;1.70;;;8.30;99.90;;;8.95;100.00;98000.81;5048224;28;20476;-81
2023/12/30 07:31:27;;;;;;;2.70;1.30;;;8.30;99.90;;;8.94;100.00;98000.00;5047939;28;20872;-80
2023/12/30 07:33:57;;;;;;;4.30;1.33;;;8.40;99.90;;;8.95;100.00;98017.25;5049365;28;20527;-80
2023/12/30 07:36:27;;;;;;;2.47;1.60;;;8.40;99.90;;;8.96;100.00;98005.00;5047938;28;20461;-80
2023/12/30 07:38:55;;;;;;;6.13;1.70;;;8.40;99.90;;;8.95;100.00;98013.84;5046134;28;20473;-81
2023/12/30 07:41:24;;;;;;;1.83;1.20;;;8.30;99.90;;;8.93;100.00;98015.78;5046586;28;20457;-80
2023/12/30 07:43:52;;;;;;;5.43;2.10;;;8.50;99.90;;;8.92;100.00;98016.81;5048472;28;20523;-80
2023/12/30 07:46:25;;;;;;;3.70;1.63;;;8.30;99.90;;;8.95;100.00;98013.84;5048086;28;20469;-80
2023/12/30 07:48:54;;;;;;;9.50;1.80;;;8.40;99.90;;;8.90;100.00;98013.56;5048285;28;20462;-80
2023/12/30 07:51:23;;;;;;;5.60;1.33;;;8.40;99.90;;;8.93;100.00;98014.00;5048812;28;21059;-81
2023/12/30 07:53:52;;;;;;;3.67;1.47;;;8.40;99.90;;;8.93;100.00;98015.78;5049182;28;20468;-81
2023/12/30 07:56:20;;;;;;;7.00;2.10;;;8.40;99.90;;;8.93;100.00;98019.22;5047922;28;20468;-81
2023/12/30 07:58:49;;;;;;;8.70;1.70;;;8.40;99.90;;;8.91;100.00;98023.00;5046889;28;20491;-81
2023/12/30 08:01:18;;;;;;;16.37;4.03;;;8.30;99.90;;;8.93;100.00;98013.19;5048352;28;20472;-81
2023/12/30 08:03:48;;;;;;;9.57;1.80;;;8.30;99.90;;;8.91;100.00;98023.81;5050282;28;20461;-80
2023/12/30 08:06:17;;;;;;;4.77;1.60;;;8.30;99.90;;;8.94;100.00;98014.81;5049292;28;20493;-80
2023/12/30 08:08:46;;;;;;;8.13;2.30;;;8.40;99.90;;;8.93;100.00;98021.00;5047438;28;20836;-80
2023/12/30 08:11:15;;;;;;;7.23;1.80;;;8.40;99.90;;;8.96;100.00;98026.69;5049421;28;20461;-81
2023/12/30 08:13:43;;;;;;;9.50;1.73;;;8.40;99.90;;;8.94;100.00;98014.81;5050898;28;20472;-81
2023/12/30 08:16:12;;;;;;;5.50;1.60;;;8.30;99.90;;;8.97;100.00;98012.66;5046141;28;20460;-81
2023/12/30 08:18:41;;;;;;;3.77;2.00;;;8.50;99.90;;;9.00;100.00;98016.72;5046954;28;20464;-81
2023/12/30 08:21:11;;;;;;;11.13;2.43;;;8.50;99.90;;;9.03;100.00;98026.78;5047349;28;20465;-80
2023/12/30 08:23:39;;;;;;;7.17;2.27;;;8.50;99.90;;;9.03;100.00;98016.34;5045441;28;20468;-80
2023/12/30 08:26:08;;;;;;;4.93;1.60;;;8.60;99.90;;;9.04;100.00;98018.78;5047560;28;20499;-80
2023/12/30 08:28:36;;;;;;;5.40;1.70;;;8.60;99.90;;;9.05;100.00;98011.78;5047362;28;20460;-81
2023/12/30 08:31:05;;;;;;;4.70;1.83;;;8.70;99.90;;;9.05;100.00;98019.63;5047382;28;20461;-81
2023/12/30 08:33:34;;;;;;;9.50;1.43;;;8.50;99.90;;;9.07;100.00;98012.41;5046865;28;20465;-80
2023/12/30 08:36:03;;;;;;;6.57;2.27;;;8.60;99.90;;;9.09;100.00;98010.44;5045895;28;20487;-80
2023/12/30 08:38:33;;;;;;;5.53;1.83;;;8.70;99.90;;;9.09;100.00;98013.84;5048249;28;21073;-80
2023/12/30 08:41:02;;;;;;;6.07;1.47;;;8.70;99.90;;;9.07;100.00;98017.63;5046512;28;21000;-80
2023/12/30 08:43:31;;;;;;;6.80;1.17;;;8.50;99.90;;;9.12;100.00;98027.53;5045499;28;20453;-81
2023/12/30 08:46:00;;;;;;;3.83;1.60;;;8.70;99.90;;;9.10;100.00;98025.09;5042733;28;21020;-80
2023/12/30 08:48:28;;;;;;;5.83;1.73;;;8.80;99.90;;;9.11;100.00;98018.88;5046737;28;20476;-81
2023/12/30 08:50:57;;;;;;;8.00;1.70;;;8.80;99.90;;;9.15;100.00;98021.94;5047818;28;20457;-80
2023/12/30 08:53:27;;;;;;;5.77;1.80;;;8.80;99.90;;;9.15;100.00;98027.97;5047775;28;21000;-81
2023/12/30 08:55:57;;;;;;;13.10;1.73;;;8.70;99.90;;;9.15;100.00;98027.97;5045498;28;20465;-81
2023/12/30 08:58:25;;;;;;;4.13;1.50;;;8.80;99.90;;;9.19;100.00;98029.25;5047956;28;20495;-81
2023/12/30 09:00:54;;;;;;;6.63;1.63;;;8.70;99.90;;;9.20;100.00;98030.06;5048464;28;20803;-80
2023/12/30 09:03:23;;;;;;;15.47;1.80;;;8.80;99.90;;;9.23;100.00;98029.72;5045236;28;20468;-81
2023/12/30 09:05:52;;;;;;;7.03;2.00;;;8.70;99.90;;;9.25;100.00;98032.94;5047435;28;21011;-80
2023/12/30 09:08:21;;;;;;;5.97;1.70;;;8.80;99.90;;;9.24;100.00;98029.50;5043962;28;20899;-80
2023/12/30 09:10:49;;;;;;;4.50;2.00;;;8.90;99.90;;;9.23;100.00;98040.97;5043870;28;20464;-80
2023/12/30 09:13:19;;;;;;;6.20;1.70;;;8.80;99.90;;;9.21;100.00;98042.91;5047070;28;20549;-80
2023/12/30 09:15:48;;;;;;;10.33;2.90;;;8.70;99.90;;;9.22;100.00;98049.75;5047124;28;20952;-80
2023/12/30 09:18:16;;;;;;;8.90;1.67;;;8.60;99.90;;;9.21;100.00;98053.34;5046545;28;21022;-81
2023/12/30 09:20:45;;;;;;;3.43;1.43;;;8.70;99.90;;;9.26;100.00;98051.03;5047963;28;20477;-81
2023/12/30 09:23:14;;;;;;;7.23;1.40;;;8.80;99.90;;;9.31;100.00;98058.31;5047966;28;20496;-80
2023/12/30 09:25:43;;;;;;;14.57;1.97;;;8.90;99.90;;;9.28;100.00;98061.28;5046613;28;20496;-81
2023/12/30 09:28:11;;;;;;;5.90;1.83;;;8.70;99.90;;;9.28;100.00;98067.31;5050507;28;20492;-81
2023/12/30 09:30:41;;;;;;;14.10;1.73;;;8.90;99.90;;;9.32;100.00;98068.59;5051954;28;20884;-80
2023/12/30 09:33:10;;;;;;;4.00;1.27;;;8.90;99.90;;;9.31;100.00;98068.75;5050758;28;20819;-80
2023/12/30 09:35:40;;;;;;;3.93;1.37;;;8.90;99.90;;;9.36;100.00;98076.88;5051434;28;20573;-79
2023/12/30 09:38:09;;;;;;;7.10;1.60;;;8.90;99.90;;;9.32;100.00;98081.63;5048955;28;20519;-80
2023/12/30 09:40:37;;;;;;;4.53;1.60;;;8.70;99.90;;;9.35;100.00;98086.47;5052718;28;20590;-80
2023/12/30 09:43:12;;;;;;;13.30;1.83;;;8.80;99.90;;;9.36;100.00;98088.13;5050292;28;20557;-81
2023/12/30 09:45:43;;;;;;;5.97;1.43;;;8.80;99.90;;;9.38;100.00;98088.72;5048824;28;20531;-81
2023/12/30 09:48:14;;;;;;;7.10;1.47;;;8.90;99.90;;;9.38;100.00;98088.72;5048724;28;20663;-81
2023/12/30 09:50:44;;;;;;;7.83;1.90;;;8.90;99.90;;;9.44;100.00;98095.06;5051043;28;20539;-81
2023/12/30 09:53:12;;;;;;;6.30;1.63;;;9.00;99.90;;;9.46;100.00;98095.69;5050989;28;20465;-81
2023/12/30 09:55:41;;;;;;;5.53;1.63;;;9.10;99.90;;;9.48;100.00;98099.72;5050833;28;20457;-80
2023/12/30 09:58:10;;;;;;;8.47;2.00;;;9.00;99.90;;;9.47;100.00;98087.69;5049788;28;20480;-81
2023/12/30 10:00:43;;;;;;;4.53;1.40;;;8.90;99.90;;;9.55;100.00;98089.38;5050446;28;20511;-80
2023/12/30 10:03:13;;;;;;;4.40;1.30;;;9.00;99.90;;;9.51;100.00;98091.53;5049987;28;20457;-79
2023/12/30 10:05:42;;;;;;;4.17;1.47;;;8.90;99.90;;;9.50;100.00;98095.16;5051242;28;20488;-81
2023/12/30 10:08:11;;;;;;;8.83;1.60;;;8.90;99.90;;;9.52;100.00;98092.34;5050526;28;20475;-80
2023/12/30 10:10:44;;;;;;;5.57;1.50;;;8.90;99.90;;;9.60;100.00;98097.50;5051259;28;20473;-81
2023/12/30 10:13:14;;;;;;;5.00;1.50;;;9.00;99.90;;;9.63;100.00;98089.31;5049314;28;20468;-81
2023/12/30 10:15:45;;;;;;;8.30;1.60;;;9.10;99.90;;;9.70;100.00;98094.59;5051652;28;20499;-80
2023/12/30 10:18:15;;;;;;;10.70;1.93;;;9.20;99.90;;;9.72;100.00;98098.66;5051537;28;21024;-81
2023/12/30 10:20:47;;;;;;;6.83;1.50;;;9.30;99.90;;;9.77;100.00;98095.50;5051471;28;20476;-81
2023/12/30 10:23:16;;;;;;;2.77;1.53;;;9.20;99.90;;;9.82;100.00;98099.19;5050610;28;20468;-81
2023/12/30 10:25:46;;;;;;;6.13;1.93;;;9.20;99.90;;;9.85;100.00;98095.44;5050984;28;20503;-81
2023/12/30 10:28:15;;;;;;;3.90;1.60;;;9.30;99.90;;;9.77;100.00;98095.50;5052388;28;20453;-81
2023/12/30 10:30:47;;;;;;;3.53;1.10;;;9.30;99.90;;;9.70;100.00;98092.81;5051159;28;20517;-81
2023/12/30 10:33:17;;;;;;;5.67;1.70;;;9.10;99.90;;;9.70;100.00;98100.66;5049979;28;20468;-80